Accueil
METAR-TAF:

METAR-TAF

Aéroports :

Luxembourg, Luxembourg

Aéroport de Luxembourg-Findel

latitude: 49-37N, longitude: 006-13E, altitude: 376 m

Observation

Le bulletin a été fait il y a 2 heures et 27 minutes, à 14:50 UTC
Vent 7 kt de nord/nord-ouest, variant entre nord-ouest et nord
Température 3°C
Humidité 65%
Pression 1015 hPa
Visibilité 10 km ou plus
Quelques nuages à une hauteur de 2600 ft

METAR: ELLX 201450Z 34007KT 310V010 9999 FEW026 03/M03 Q1015 NOSIG

Heure: 18:17 (17:17 UTC)

Prévision

Le bulletin a été fait il y a 6 heures et 17 minutes, à 11:00 UTC
Prévision valable du 20 à 12 UTC au 21 à 18 UTC
Vent 5 kt de nord/nord-est
Visibilité 10 km ou plus
Quelques nuages à une hauteur de 2500 ft
Probabilité 30% :
Temporairement
du 20 à 20 UTC au 21 à 01 UTC
Visibilité: 4500 m
brume

TAF: ELLX 201100Z 2012/2118 03005KT 9999 FEW025 PROB30 TEMPO 2020/2101 4500 BR

Observations et prévisions météorologiques de plus de 4000 aéroports (messages METAR et TAF).

Les stations disponibles sont représentées par des disques jaunes et rouges sur la carte.

Passer la souris dessus pour voir le nom de la station.

Cliquer dessus pour voir les observations et prévisions météorologiques.

Pour changer de carte: cliquez sur les boutons verts avec une croix noire pour zoomer, sur le bouton vert avec un tiret pour effectuer un zoom arrière, ou sur les flèches vertes pour les cartes adjacentes.


METAR-TAF: